Le Roy, New York
Current Conditions -  °F | °C
As of 9:54 AM on Friday 24 Oct 2014 (Local Time) from KROC Reporting Station
Scattered Clouds Scattered Clouds  
Wind Chill: 45°   Ceiling: Unl
Heat Index: 49°   Visibility: 10mi
Dew Point: 43°   Wind: 8mph
Humidity: 80%   Direction: 280°W
Pressure: 30.01"   Gusts: NA
Location:  42.98°N, 77.98°W
Report Text: KROC 241354Z 28007KT 10SM FEW040 SCT180 09/06 A3001 RMK AO2 SLP166 T00940061
Loading
Personal Weather Stations






























Interactive Weather Map
Tropical Storm Tracking
New forecast layout! Learn more

10-Day Weather Forecast

Advertisements
Track Severe Weather on mobile